Time;durP1;ratioP1;P1;durP2;ratioP2;P2;SDS_P1;SDS_P2;PMS_P1;PMS_P2;Temp;Humidity;BMP_temperature;BMP_pressure;BME280_temperature;BME280_humidity;BME280_pressure;Samples;Min_cycle;Max_cycle;Signal;HPM_P1;HPM_P2
2021/12/04 00:02:19;;;;;;;;;;;5.70;73.60;;;;;;5061989;28;19938;-75
2021/12/04 00:04:48;;;;;;;;;;;5.70;74.30;;;;;;5061916;28;20003;-75
2021/12/04 00:07:14;;;;;;;;;;;5.70;75.10;;;;;;5057384;28;19948;-75
2021/12/04 00:09:39;;;;;;;;;;;5.60;76.50;;;;;;5060863;28;19996;-75
2021/12/04 00:12:07;;;;;;;;;;;5.50;77.30;;;;;;5062265;28;19970;-75
2021/12/04 00:14:36;;;;;;;;;;;5.50;76.60;;;;;;5060523;28;19944;-75
2021/12/04 00:17:03;;;;;;;;;;;5.40;76.00;;;;;;5061746;28;20440;-75
2021/12/04 00:19:28;;;;;;;;;;;5.40;77.40;;;;;;5061847;28;19945;-75
2021/12/04 00:21:55;;;;;;;;;;;5.40;77.30;;;;;;5059889;28;19957;-75
2021/12/04 00:24:20;;;;;;;;;;;5.30;76.60;;;;;;5061830;28;19975;-75
2021/12/04 00:26:46;;;;;;;;;;;5.30;75.30;;;;;;5061179;28;19966;-75
2021/12/04 00:29:12;;;;;;;;;;;5.10;76.90;;;;;;5062328;28;19963;-75
2021/12/04 00:31:40;;;;;;;;;;;4.90;78.40;;;;;;5061539;28;20448;-75
2021/12/04 00:34:06;;;;;;;;;;;4.70;79.00;;;;;;5061968;28;19948;-75
2021/12/04 00:37:05;;;;;;;;;;;4.60;79.50;;;;;;5061448;28;20005;-75
2021/12/04 00:50:14;;;;;;;;;;;5.00;78.60;;;;;;5061588;28;20028;-75
2021/12/04 00:52:40;;;;;;;;;;;5.00;77.70;;;;;;5061974;28;20055;-75
2021/12/04 00:55:06;;;;;;;;;;;5.00;76.30;;;;;;5060434;28;19994;-75
2021/12/04 00:57:32;;;;;;;;;;;5.10;76.20;;;;;;5050753;28;19951;-75
2021/12/04 00:59:58;;;;;;;;;;;5.10;78.40;;;;;;5061374;28;19948;-75
2021/12/04 01:02:23;;;;;;;;;;;5.00;78.90;;;;;;5053038;28;19966;-75
2021/12/04 01:04:49;;;;;;;;;;;5.10;79.60;;;;;;5061332;28;20487;-75
2021/12/04 01:07:14;;;;;;;;;;;5.10;78.10;;;;;;5057085;28;19950;-75
2021/12/04 01:09:40;;;;;;;;;;;5.10;78.00;;;;;;5059989;28;19950;-75
2021/12/04 01:12:06;;;;;;;;;;;5.00;79.40;;;;;;5061923;28;20021;-75
2021/12/04 01:14:32;;;;;;;;;;;4.90;79.70;;;;;;5062247;28;19947;-75
2021/12/04 01:16:58;;;;;;;;;;;4.90;80.30;;;;;;5061331;28;19998;-75
2021/12/04 01:19:25;;;;;;;;;;;4.90;80.00;;;;;;5061860;28;19947;-75
2021/12/04 01:21:51;;;;;;;;;;;4.90;80.00;;;;;;5061480;28;20437;-75
2021/12/04 01:24:17;;;;;;;;;;;4.90;79.20;;;;;;5061429;28;19967;-75
2021/12/04 01:26:42;;;;;;;;;;;4.90;79.40;;;;;;5061787;28;19961;-75
2021/12/04 01:29:08;;;;;;;;;;;4.90;80.40;;;;;;5043533;28;20420;-75
2021/12/04 01:31:33;;;;;;;;;;;4.90;80.40;;;;;;5061175;28;20421;-75
2021/12/04 01:33:59;;;;;;;;;;;5.00;80.70;;;;;;5060943;28;19951;-75
2021/12/04 01:36:25;;;;;;;;;;;5.00;79.70;;;;;;5061362;28;19948;-75
2021/12/04 01:38:51;;;;;;;;;;;5.10;78.30;;;;;;5077445;22;20003;-75
2021/12/04 01:41:16;;;;;;;;;;;5.10;77.60;;;;;;5085850;28;19947;-75
2021/12/04 01:43:42;;;;;;;;;;;5.20;77.50;;;;;;5066779;28;20409;-75
2021/12/04 01:46:08;;;;;;;;;;;5.20;78.90;;;;;;5085646;28;19945;-75
2021/12/04 01:48:33;;;;;;;;;;;5.20;80.10;;;;;;5085098;28;19941;-75
2021/12/04 01:50:59;;;;;;;;;;;5.20;80.50;;;;;;5085210;28;19948;-75
2021/12/04 01:53:25;;;;;;;;;;;5.20;79.30;;;;;;5067069;28;19965;-75
2021/12/04 01:55:55;;;;;;;;;;;5.30;77.50;;;;;;5084972;28;19948;-75
2021/12/04 01:58:21;;;;;;;;;;;5.30;77.30;;;;;;5084737;28;19957;-75
2021/12/04 02:00:47;;;;;;;;;;;5.40;77.50;;;;;;5070360;28;19962;-75
2021/12/04 02:03:13;;;;;;;;;;;5.40;77.80;;;;;;5067731;28;19947;-75
2021/12/04 02:05:42;;;;;;;;;;;5.30;78.40;;;;;;5084580;28;20390;-75
2021/12/04 02:08:08;;;;;;;;;;;5.30;77.90;;;;;;5078314;28;19978;-75
2021/12/04 02:10:34;;;;;;;;;;;5.30;77.70;;;;;;5084561;28;19947;-75
2021/12/04 02:13:00;;;;;;;;;;;5.30;77.90;;;;;;5084601;28;19968;-75
2021/12/04 02:15:26;;;;;;;;;;;5.30;78.40;;;;;;5084055;28;19952;-75
2021/12/04 02:17:52;;;;;;;;;;;5.30;77.60;;;;;;5075946;28;19937;-75
2021/12/04 02:20:22;;;;;;;;;;;5.30;77.50;;;;;;5070288;28;19992;-75
2021/12/04 02:22:48;;;;;;;;;;;5.40;77.30;;;;;;5080727;28;20326;-75
2021/12/04 02:25:14;;;;;;;;;;;5.40;77.30;;;;;;5082687;28;19942;-75
2021/12/04 02:27:39;;;;;;;;;;;5.40;76.90;;;;;;5064302;28;19938;-75
2021/12/04 02:30:10;;;;;;;;;;;5.40;76.90;;;;;;5063755;28;19952;-75
2021/12/04 02:32:36;;;;;;;;;;;5.40;79.30;;;;;;5063973;28;19970;-75
2021/12/04 02:35:01;;;;;;;;;;;5.20;80.40;;;;;;5057245;28;19943;-75
2021/12/04 02:37:27;;;;;;;;;;;5.10;81.30;;;;;;5065641;28;20028;-75
2021/12/04 02:39:58;;;;;;;;;;;5.00;82.00;;;;;;5065629;28;20512;-75
2021/12/04 02:42:25;;;;;;;;;;;5.00;82.50;;;;;;5083518;28;20078;-75
2021/12/04 02:44:50;;;;;;;;;;;5.10;82.50;;;;;;5083827;28;20470;-75
2021/12/04 02:47:16;;;;;;;;;;;5.00;82.40;;;;;;5083557;28;19953;-75
2021/12/04 02:49:42;;;;;;;;;;;5.00;82.40;;;;;;5083507;28;20059;-75
2021/12/04 02:52:09;;;;;;;;;;;5.00;82.40;;;;;;5071695;28;20018;-75
2021/12/04 02:54:35;;;;;;;;;;;5.00;82.60;;;;;;5063358;28;19940;-75
2021/12/04 02:57:01;;;;;;;;;;;4.90;82.80;;;;;;5063261;28;20005;-75
2021/12/04 02:59:27;;;;;;;;;;;4.80;82.60;;;;;;5045446;28;19955;-75
2021/12/04 03:01:55;;;;;;;;;;;4.70;82.40;;;;;;5063420;28;19947;-75
2021/12/04 03:04:23;;;;;;;;;;;4.80;82.70;;;;;;5063358;28;19960;-75
2021/12/04 03:06:48;;;;;;;;;;;4.90;82.20;;;;;;5060709;28;20391;-75
2021/12/04 03:09:14;;;;;;;;;;;5.00;81.60;;;;;;5059951;28;20068;-75
2021/12/04 03:11:40;;;;;;;;;;;5.00;80.90;;;;;;5063409;28;20816;-75
2021/12/04 03:14:06;;;;;;;;;;;5.10;79.80;;;;;;5062272;28;19948;-75
2021/12/04 03:16:33;;;;;;;;;;;5.10;79.50;;;;;;5063558;28;19968;-75
2021/12/04 03:18:59;;;;;;;;;;;5.10;80.40;;;;;;5044346;28;19950;-75
2021/12/04 03:21:25;;;;;;;;;;;5.00;81.10;;;;;;5063125;28;19995;-75
2021/12/04 03:26:28;;;;;;;;;;;4.90;81.90;;;;;;5076487;28;19993;-75
2021/12/04 03:28:55;;;;;;;;;;;4.90;81.90;;;;;;5082973;28;20405;-75
2021/12/04 03:42:05;;;;;;;;;;;5.00;78.90;;;;;;5073705;28;19951;-75
2021/12/04 03:44:31;;;;;;;;;;;5.10;78.50;;;;;;5073588;28;19949;-75
2021/12/04 03:46:58;;;;;;;;;;;5.10;78.80;;;;;;5063072;28;19946;-75
2021/12/04 03:49:23;;;;;;;;;;;5.10;78.60;;;;;;5062815;28;19951;-75
2021/12/04 03:51:49;;;;;;;;;;;5.10;78.90;;;;;;5044525;28;20475;-75
2021/12/04 03:54:15;;;;;;;;;;;5.10;80.50;;;;;;5062405;28;19943;-75
2021/12/04 03:56:40;;;;;;;;;;;5.00;81.30;;;;;;5065835;28;19950;-75
2021/12/04 03:59:06;;;;;;;;;;;4.90;81.80;;;;;;5081596;28;19941;-75
2021/12/04 04:01:32;;;;;;;;;;;4.90;82.70;;;;;;5081765;28;19947;-75
2021/12/04 04:03:57;;;;;;;;;;;4.80;83.10;;;;;;5082639;28;19951;-75
2021/12/04 04:06:23;;;;;;;;;;;4.80;83.30;;;;;;5081803;28;20065;-75
2021/12/04 04:08:48;;;;;;;;;;;4.60;83.20;;;;;;5077316;28;20029;-75
2021/12/04 04:11:14;;;;;;;;;;;4.50;82.90;;;;;;5063557;28;20334;-75
2021/12/04 04:13:43;;;;;;;;;;;4.60;83.30;;;;;;5079517;28;20504;-75
2021/12/04 04:16:08;;;;;;;;;;;4.70;83.20;;;;;;5062093;28;19949;-75
2021/12/04 04:18:34;;;;;;;;;;;4.70;82.70;;;;;;5044147;28;19956;-75
2021/12/04 04:21:00;;;;;;;;;;;4.70;82.60;;;;;;5043816;28;20099;-75
2021/12/04 04:23:26;;;;;;;;;;;4.60;82.40;;;;;;5062318;28;20437;-75
2021/12/04 04:25:51;;;;;;;;;;;4.60;82.50;;;;;;5062144;28;20047;-75
2021/12/04 04:28:17;;;;;;;;;;;4.60;82.20;;;;;;5062341;28;20326;-75
2021/12/04 04:30:43;;;;;;;;;;;4.60;82.10;;;;;;5044542;28;19947;-75
2021/12/04 04:33:11;;;;;;;;;;;4.70;81.90;;;;;;5062115;28;19979;-75
2021/12/04 04:35:37;;;;;;;;;;;4.70;81.60;;;;;;5061671;28;20041;-75
2021/12/04 04:38:16;;;;;;;;;;;4.80;81.50;;;;;;5061686;28;20052;-75
2021/12/04 05:00:51;;;;;;;;;;;4.90;80.80;;;;;;5061528;28;20037;-75
2021/12/04 05:13:10;;;;;;;;;;;4.60;81.90;;;;;;5080526;28;20419;-75
2021/12/04 05:20:49;;;;;;;;;;;4.50;82.30;;;;;;5066122;28;19944;-75
2021/12/04 05:23:15;;;;;;;;;;;4.50;82.60;;;;;;5061227;28;20038;-75
2021/12/04 05:25:41;;;;;;;;;;;4.50;82.90;;;;;;5060592;28;20500;-75
2021/12/04 05:28:07;;;;;;;;;;;4.50;82.80;;;;;;5060901;28;19991;-75
2021/12/04 05:30:33;;;;;;;;;;;4.50;82.90;;;;;;5043217;28;20270;-75
2021/12/04 05:32:59;;;;;;;;;;;4.50;82.90;;;;;;5060859;28;19972;-75
2021/12/04 05:35:25;;;;;;;;;;;4.50;82.90;;;;;;5042755;28;19955;-75
2021/12/04 05:37:50;;;;;;;;;;;4.40;82.50;;;;;;5076221;28;19991;-75
2021/12/04 05:40:16;;;;;;;;;;;4.50;82.50;;;;;;5080844;28;20084;-75
2021/12/04 05:42:43;;;;;;;;;;;4.40;81.90;;;;;;5081169;28;19967;-75
2021/12/04 05:45:16;;;;;;;;;;;4.20;81.50;;;;;;5062795;28;19956;-75
2021/12/04 05:48:05;;;;;;;;;;;4.20;81.10;;;;;;5080774;28;20428;-75
2021/12/04 05:53:21;;;;;;;;;;;4.20;81.10;;;;;;5079924;28;19972;-75
2021/12/04 05:55:54;;;;;;;;;;;4.10;81.20;;;;;;5061549;28;19943;-75
2021/12/04 05:58:21;;;;;;;;;;;3.90;81.60;;;;;;5080140;28;19948;-75
2021/12/04 06:00:47;;;;;;;;;;;3.90;81.80;;;;;;5067199;28;20411;-75
2021/12/04 06:03:13;;;;;;;;;;;4.00;82.30;;;;;;5060437;28;19951;-75
2021/12/04 06:05:38;;;;;;;;;;;4.00;82.70;;;;;;5079068;28;19958;-75
2021/12/04 06:08:04;;;;;;;;;;;3.90;83.00;;;;;;5062574;28;19950;-75
2021/12/04 06:10:30;;;;;;;;;;;3.90;82.90;;;;;;5063589;28;20040;-75
2021/12/04 06:12:55;;;;;;;;;;;3.90;83.20;;;;;;5053903;28;19959;-75
2021/12/04 06:15:21;;;;;;;;;;;3.90;83.70;;;;;;5080085;28;19995;-75
2021/12/04 06:17:49;;;;;;;;;;;4.00;83.80;;;;;;5080321;28;19988;-75
2021/12/04 06:22:58;;;;;;;;;;;3.90;85.00;;;;;;5080083;28;20101;-75
2021/12/04 06:25:25;;;;;;;;;;;4.00;85.30;;;;;;5072305;28;19954;-75
2021/12/04 06:27:51;;;;;;;;;;;4.00;85.30;;;;;;5081272;28;19954;-75
2021/12/04 06:30:17;;;;;;;;;;;4.00;85.50;;;;;;5081349;28;19991;-75
2021/12/04 06:32:46;;;;;;;;;;;4.00;85.80;;;;;;5065624;28;20049;-75
2021/12/04 06:35:11;;;;;;;;;;;4.10;86.20;;;;;;5083867;28;19949;-75
2021/12/04 06:37:37;;;;;;;;;;;4.20;85.90;;;;;;5083209;28;20831;-75
2021/12/04 06:40:04;;;;;;;;;;;4.10;85.70;;;;;;5082618;28;20073;-75
2021/12/04 06:42:29;;;;;;;;;;;4.10;85.70;;;;;;5082380;28;20327;-75
2021/12/04 06:44:56;;;;;;;;;;;4.00;86.10;;;;;;5082503;28;19965;-75
2021/12/04 06:47:22;;;;;;;;;;;4.00;86.30;;;;;;5081918;28;20393;-75
2021/12/04 06:49:50;;;;;;;;;;;4.00;86.60;;;;;;5063294;28;19951;-75
2021/12/04 06:52:19;;;;;;;;;;;4.00;86.70;;;;;;5063814;28;19995;-75
2021/12/04 06:54:56;;;;;;;;;;;4.00;86.60;;;;;;5063993;28;20131;-75
2021/12/04 06:57:22;;;;;;;;;;;4.00;86.40;;;;;;5082270;28;19952;-75
2021/12/04 06:59:48;;;;;;;;;;;4.00;85.50;;;;;;5080705;28;19987;-75
2021/12/04 07:02:14;;;;;;;;;;;4.10;85.00;;;;;;5063277;28;20403;-75
2021/12/04 07:04:40;;;;;;;;;;;4.20;85.80;;;;;;5081117;28;20039;-75
2021/12/04 07:07:06;;;;;;;;;;;4.20;86.10;;;;;;5078557;28;20695;-75
2021/12/04 07:09:32;;;;;;;;;;;4.10;86.20;;;;;;5076914;28;20321;-76
2021/12/04 07:11:59;;;;;;;;;;;4.10;86.40;;;;;;5062251;28;20245;-75
2021/12/04 07:14:26;;;;;;;;;;;4.20;86.00;;;;;;5062433;28;19955;-75
2021/12/04 07:16:51;;;;;;;;;;;4.40;85.90;;;;;;5045065;28;19964;-75
2021/12/04 07:19:17;;;;;;;;;;;4.40;85.30;;;;;;5044903;28;19945;-75
2021/12/04 07:21:45;;;;;;;;;;;4.40;85.10;;;;;;5077239;28;19947;-75
2021/12/04 07:24:10;;;;;;;;;;;4.40;85.40;;;;;;5070121;28;19957;-75
2021/12/04 07:26:36;;;;;;;;;;;4.40;85.70;;;;;;5078086;28;19964;-75
2021/12/04 07:29:02;;;;;;;;;;;4.40;86.10;;;;;;5057090;28;20121;-75
2021/12/04 07:31:29;;;;;;;;;;;4.50;86.30;;;;;;5080521;28;19956;-75
2021/12/04 07:33:55;;;;;;;;;;;4.50;85.70;;;;;;5081126;28;20014;-75
2021/12/04 07:36:21;;;;;;;;;;;4.50;85.10;;;;;;5079949;28;19994;-75
2021/12/04 07:38:47;;;;;;;;;;;4.60;85.10;;;;;;5080287;28;20473;-75
2021/12/04 07:41:12;;;;;;;;;;;4.70;85.10;;;;;;5079896;28;20431;-74
2021/12/04 07:43:38;;;;;;;;;;;4.70;85.10;;;;;;5062897;28;20037;-74
2021/12/04 07:46:04;;;;;;;;;;;4.70;84.60;;;;;;5080535;28;19954;-74
2021/12/04 07:48:29;;;;;;;;;;;4.80;84.30;;;;;;5053433;28;20398;-74
2021/12/04 07:50:55;;;;;;;;;;;4.80;83.50;;;;;;5074201;28;19948;-75
2021/12/04 07:53:21;;;;;;;;;;;4.80;83.50;;;;;;5072614;28;20016;-75
2021/12/04 07:55:47;;;;;;;;;;;4.90;83.30;;;;;;5058832;28;19965;-73
2021/12/04 07:58:13;;;;;;;;;;;4.80;82.80;;;;;;5078842;28;19968;-73
2021/12/04 08:00:39;;;;;;;;;;;4.70;82.50;;;;;;5061837;28;19950;-73
2021/12/04 08:03:05;;;;;;;;;;;4.90;83.20;;;;;;5079919;28;19947;-75
2021/12/04 08:05:31;;;;;;;;;;;4.90;82.40;;;;;;5079681;28;19956;-73
2021/12/04 08:07:57;;;;;;;;;;;4.90;81.20;;;;;;5049091;28;20028;-73
2021/12/04 08:10:23;;;;;;;;;;;5.00;79.60;;;;;;5066613;28;20359;-73
2021/12/04 08:12:48;;;;;;;;;;;5.10;78.70;;;;;;5079015;28;19965;-73
2021/12/04 08:15:16;;;;;;;;;;;5.20;79.50;;;;;;5079724;28;20026;-75
2021/12/04 08:17:43;;;;;;;;;;;5.30;79.50;;;;;;5079215;28;19968;-75
2021/12/04 08:20:10;;;;;;;;;;;5.50;78.50;;;;;;5080145;28;19973;-73
2021/12/04 08:22:36;;;;;;;;;;;5.70;77.10;;;;;;5076434;28;19950;-73
2021/12/04 08:25:02;;;;;;;;;;;5.90;76.50;;;;;;5059237;28;19950;-76
2021/12/04 08:27:28;;;;;;;;;;;6.10;74.80;;;;;;5079750;28;19974;-73
2021/12/04 08:29:53;;;;;;;;;;;6.30;73.10;;;;;;5079871;28;20231;-73
2021/12/04 08:32:23;;;;;;;;;;;6.40;73.30;;;;;;5079268;28;20478;-73
2021/12/04 08:34:48;;;;;;;;;;;6.60;73.10;;;;;;5079554;28;19978;-74
2021/12/04 08:37:14;;;;;;;;;;;6.50;65.70;;;;;;5059337;28;19951;-74
2021/12/04 08:39:39;;;;;;;;;;;6.40;67.80;;;;;;5071130;28;20422;-74
2021/12/04 08:42:05;;;;;;;;;;;6.50;66.60;;;;;;5061677;28;20458;-74
2021/12/04 08:44:31;;;;;;;;;;;6.40;66.30;;;;;;5073872;28;20412;-74
2021/12/04 08:46:56;;;;;;;;;;;6.50;67.10;;;;;;5066165;28;20924;-74
2021/12/04 08:49:23;;;;;;;;;;;6.70;68.20;;;;;;5052297;28;20421;-74
2021/12/04 08:51:48;;;;;;;;;;;6.70;66.80;;;;;;5077181;28;20047;-74
2021/12/04 08:54:14;;;;;;;;;;;6.90;65.30;;;;;;5077052;28;19968;-74
2021/12/04 08:56:40;;;;;;;;;;;6.90;64.00;;;;;;5055342;28;19958;-74
2021/12/04 08:59:07;;;;;;;;;;;7.00;63.50;;;;;;5071744;28;19948;-75
2021/12/04 09:01:34;;;;;;;;;;;7.00;64.00;;;;;;5071265;28;19946;-75
2021/12/04 09:04:32;;;;;;;;;;;7.10;63.80;;;;;;5077414;28;20449;-75
2021/12/04 09:06:58;;;;;;;;;;;7.30;63.60;;;;;;5036639;28;20540;-74
2021/12/04 09:09:24;;;;;;;;;;;7.50;65.30;;;;;;5047918;28;19983;-74
2021/12/04 09:11:52;;;;;;;;;;;7.60;64.00;;;;;;5073621;28;20029;-74
2021/12/04 09:14:19;;;;;;;;;;;7.60;64.30;;;;;;5056040;28;19971;-75
2021/12/04 09:16:45;;;;;;;;;;;7.70;63.90;;;;;;5077069;28;19941;-74
2021/12/04 09:19:10;;;;;;;;;;;7.70;62.30;;;;;;5052677;28;19967;-74
2021/12/04 09:21:38;;;;;;;;;;;7.60;61.70;;;;;;5060232;28;19939;-74
2021/12/04 09:24:14;;;;;;;;;;;7.50;61.30;;;;;;5071568;28;19992;-74
2021/12/04 10:05:00;;;;;;;;;;;8.50;57.20;;;;;;5055878;28;19946;-75
2021/12/04 10:34:24;;;;;;;;;;;8.80;56.20;;;;;;5057373;28;20032;-75
2021/12/04 10:36:50;;;;;;;;;;;8.80;56.00;;;;;;5039810;28;19957;-75
2021/12/04 10:39:16;;;;;;;;;;;8.90;55.50;;;;;;5057651;28;19973;-75
2021/12/04 10:41:43;;;;;;;;;;;9.10;54.20;;;;;;5051051;28;20504;-75
2021/12/04 10:44:20;;;;;;;;;;;9.20;53.60;;;;;;5038961;28;20299;-75
2021/12/04 10:47:00;;;;;;;;;;;9.10;52.70;;;;;;5055643;28;20042;-75
2021/12/04 10:49:43;;;;;;;;;;;9.00;52.00;;;;;;5038358;28;19966;-75
2021/12/04 10:52:20;;;;;;;;;;;8.90;54.00;;;;;;5042154;28;19999;-75
2021/12/04 10:54:51;;;;;;;;;;;8.80;56.40;;;;;;5058916;28;19998;-75
2021/12/04 11:02:49;;;;;;;;;;;8.90;57.90;;;;;;5060574;28;19976;-75
2021/12/04 11:28:12;;;;;;;;;;;9.20;52.60;;;;;;5061272;28;19954;-75
2021/12/04 11:41:30;;;;;;;;;;;8.60;56.10;;;;;;5056685;28;19945;-73
2021/12/04 11:44:06;;;;;;;;;;;8.70;55.10;;;;;;5058590;28;19955;-73
2021/12/04 11:46:43;;;;;;;;;;;8.50;56.80;;;;;;5040802;28;19956;-73
2021/12/04 11:49:14;;;;;;;;;;;8.40;58.20;;;;;;5049194;28;19971;-73
2021/12/04 11:51:52;;;;;;;;;;;8.30;57.30;;;;;;5028567;28;20718;-73
2021/12/04 11:54:18;;;;;;;;;;;8.20;58.20;;;;;;5049727;28;19949;-73
2021/12/04 11:56:44;;;;;;;;;;;8.10;57.90;;;;;;5031228;28;20323;-73
2021/12/04 11:59:10;;;;;;;;;;;8.20;58.60;;;;;;5026834;28;20342;-74
2021/12/04 12:01:36;;;;;;;;;;;8.20;58.30;;;;;;5045906;28;20494;-73
2021/12/04 12:04:02;;;;;;;;;;;8.30;59.60;;;;;;5053291;28;20008;-73
2021/12/04 12:06:32;;;;;;;;;;;8.40;59.30;;;;;;5043710;28;19951;-75
2021/12/04 12:09:14;;;;;;;;;;;8.30;58.80;;;;;;5035246;28;19970;-73
2021/12/04 12:11:47;;;;;;;;;;;8.40;58.50;;;;;;5060990;28;19940;-73
2021/12/04 12:14:14;;;;;;;;;;;8.40;59.10;;;;;;5041977;28;20049;-73
2021/12/04 12:16:47;;;;;;;;;;;8.10;59.20;;;;;;5061260;28;20044;-73
2021/12/04 12:19:26;;;;;;;;;;;8.20;60.00;;;;;;5045759;28;20044;-73
2021/12/04 12:22:07;;;;;;;;;;;8.10;58.00;;;;;;5038040;28;19980;-73
2021/12/04 12:38:35;;;;;;;;;;;8.10;58.20;;;;;;5060217;28;20507;-73
2021/12/04 12:41:01;;;;;;;;;;;8.30;58.20;;;;;;5060279;28;20040;-73
2021/12/04 12:43:34;;;;;;;;;;;8.40;57.20;;;;;;5059965;28;20094;-73
2021/12/04 12:46:00;;;;;;;;;;;8.50;56.90;;;;;;5060715;28;19946;-73
2021/12/04 12:48:25;;;;;;;;;;;8.60;57.60;;;;;;5042004;28;19979;-74
2021/12/04 12:50:52;;;;;;;;;;;8.50;57.90;;;;;;5060108;28;20358;-73
2021/12/04 12:53:25;;;;;;;;;;;8.70;55.70;;;;;;5059763;28;20050;-73
2021/12/04 12:56:02;;;;;;;;;;;8.80;54.70;;;;;;5040125;28;20180;-73
2021/12/04 12:58:31;;;;;;;;;;;8.90;55.40;;;;;;5040555;28;20067;-73
2021/12/04 13:12:08;;;;;;;;;;;8.80;57.60;;;;;;5039546;28;19998;-73
2021/12/04 13:14:40;;;;;;;;;;;8.80;56.80;;;;;;5021553;28;20364;-73
2021/12/04 13:17:10;;;;;;;;;;;8.80;56.70;;;;;;5040180;28;19977;-73
2021/12/04 13:19:37;;;;;;;;;;;8.80;56.40;;;;;;5040162;28;20477;-73
2021/12/04 13:22:13;;;;;;;;;;;8.90;57.10;;;;;;5039781;28;20006;-73
2021/12/04 13:24:40;;;;;;;;;;;8.80;56.50;;;;;;5029649;28;19949;-73
2021/12/04 13:29:58;;;;;;;;;;;8.70;56.70;;;;;;5042201;28;19951;-73
2021/12/04 13:32:33;;;;;;;;;;;8.60;56.90;;;;;;5046705;28;19964;-73
2021/12/04 13:35:03;;;;;;;;;;;8.60;57.30;;;;;;5057725;28;19961;-73
2021/12/04 13:37:29;;;;;;;;;;;8.50;57.70;;;;;;5044696;28;19958;-73
2021/12/04 13:39:56;;;;;;;;;;;8.50;57.70;;;;;;5044635;28;20119;-73
2021/12/04 13:42:22;;;;;;;;;;;8.50;57.80;;;;;;5061015;28;19955;-73
2021/12/04 13:44:48;;;;;;;;;;;8.50;58.70;;;;;;5046053;28;20006;-73
2021/12/04 13:47:14;;;;;;;;;;;8.40;58.70;;;;;;5045827;28;19955;-73
2021/12/04 13:49:53;;;;;;;;;;;8.40;59.10;;;;;;5063704;28;19944;-73
2021/12/04 13:52:19;;;;;;;;;;;8.40;59.10;;;;;;5063013;28;19969;-73
2021/12/04 13:54:47;;;;;;;;;;;8.30;59.10;;;;;;5063543;28;20101;-73
2021/12/04 13:57:13;;;;;;;;;;;8.30;61.20;;;;;;5049836;28;19951;-73
2021/12/04 13:59:39;;;;;;;;;;;8.20;62.00;;;;;;5043634;28;19946;-73
2021/12/04 14:02:05;;;;;;;;;;;8.10;61.00;;;;;;5062805;28;19943;-73
2021/12/04 14:04:31;;;;;;;;;;;8.00;62.20;;;;;;5044746;28;19948;-73
2021/12/04 14:07:01;;;;;;;;;;;7.90;62.60;;;;;;5060326;28;19947;-74
2021/12/04 14:09:31;;;;;;;;;;;7.80;62.50;;;;;;5042248;28;20000;-74
2021/12/04 14:11:57;;;;;;;;;;;7.70;62.10;;;;;;5062639;28;19945;-74
2021/12/04 14:14:25;;;;;;;;;;;7.80;62.00;;;;;;5062429;28;19988;-74
2021/12/04 14:16:52;;;;;;;;;;;7.70;62.30;;;;;;5044433;28;19953;-74
2021/12/04 14:19:23;;;;;;;;;;;7.70;63.10;;;;;;5062640;28;20357;-74
2021/12/04 14:22:08;;;;;;;;;;;7.70;63.10;;;;;;5062806;28;19966;-74
2021/12/04 14:24:37;;;;;;;;;;;7.70;62.50;;;;;;5062164;28;20268;-74
2021/12/04 14:27:04;;;;;;;;;;;7.70;62.60;;;;;;5062269;28;20077;-74
2021/12/04 14:29:34;;;;;;;;;;;7.70;61.70;;;;;;5062461;28;20072;-74
2021/12/04 14:31:59;;;;;;;;;;;7.60;62.20;;;;;;5039571;28;19954;-74
2021/12/04 14:34:26;;;;;;;;;;;7.70;61.90;;;;;;5042227;28;19948;-74
2021/12/04 14:37:04;;;;;;;;;;;7.60;61.80;;;;;;5042582;28;19957;-74
2021/12/04 14:39:30;;;;;;;;;;;7.70;61.40;;;;;;5042202;28;19981;-74
2021/12/04 14:41:56;;;;;;;;;;;7.70;62.10;;;;;;5041406;28;20323;-74
2021/12/04 14:44:21;;;;;;;;;;;7.70;62.30;;;;;;5041586;28;19960;-74
2021/12/04 14:46:47;;;;;;;;;;;7.60;62.00;;;;;;5047668;28;20551;-74
2021/12/04 14:49:13;;;;;;;;;;;7.60;62.40;;;;;;5047712;28;19956;-74
2021/12/04 14:51:39;;;;;;;;;;;7.50;62.10;;;;;;5058128;28;20051;-74
2021/12/04 14:54:05;;;;;;;;;;;7.50;63.80;;;;;;5042170;28;19971;-74
2021/12/04 14:56:31;;;;;;;;;;;7.40;64.00;;;;;;5048596;28;19950;-74
2021/12/04 14:58:57;;;;;;;;;;;7.40;64.80;;;;;;5061788;28;19939;-74
2021/12/04 15:01:26;;;;;;;;;;;7.40;64.60;;;;;;5061557;28;19967;-74
2021/12/04 15:03:55;;;;;;;;;;;7.30;65.70;;;;;;5049341;28;19955;-74
2021/12/04 15:06:24;;;;;;;;;;;7.20;65.60;;;;;;5041188;28;20353;-74
2021/12/04 15:08:54;;;;;;;;;;;7.20;65.60;;;;;;5036855;28;20436;-74
2021/12/04 15:11:21;;;;;;;;;;;7.10;66.10;;;;;;5041535;28;19945;-74
2021/12/04 15:13:53;;;;;;;;;;;7.10;66.40;;;;;;5041191;28;19978;-74
2021/12/04 15:16:29;;;;;;;;;;;7.10;66.90;;;;;;5041697;28;19976;-74
2021/12/04 15:19:05;;;;;;;;;;;7.10;67.20;;;;;;5051889;28;19946;-74
2021/12/04 15:21:35;;;;;;;;;;;7.10;66.90;;;;;;5045224;28;19957;-74
2021/12/04 15:24:00;;;;;;;;;;;7.20;66.90;;;;;;5062650;28;20054;-74
2021/12/04 15:26:26;;;;;;;;;;;7.10;66.30;;;;;;5060721;28;20250;-74
2021/12/04 15:28:53;;;;;;;;;;;7.00;65.70;;;;;;5061113;28;20317;-74
2021/12/04 15:31:20;;;;;;;;;;;7.10;66.70;;;;;;5061049;28;19950;-74
2021/12/04 15:33:48;;;;;;;;;;;7.10;66.60;;;;;;5060377;28;20400;-74
2021/12/04 15:36:21;;;;;;;;;;;7.10;66.90;;;;;;5061639;28;20027;-74
2021/12/04 15:38:51;;;;;;;;;;;7.20;66.90;;;;;;5061357;28;19939;-74
2021/12/04 15:54:31;;;;;;;;;;;7.60;64.90;;;;;;5046334;28;19969;-74
2021/12/04 15:56:57;;;;;;;;;;;7.60;65.10;;;;;;5032221;28;19960;-74
2021/12/04 15:59:24;;;;;;;;;;;7.60;65.20;;;;;;5022655;28;19974;-74
2021/12/04 16:01:52;;;;;;;;;;;7.60;65.00;;;;;;5040638;28;19957;-74
2021/12/04 16:04:29;;;;;;;;;;;7.50;64.70;;;;;;5040184;28;19951;-74
2021/12/04 16:06:55;;;;;;;;;;;7.50;64.80;;;;;;5037042;28;19958;-74
2021/12/04 16:09:28;;;;;;;;;;;7.50;65.10;;;;;;5042492;28;19948;-74
2021/12/04 16:11:58;;;;;;;;;;;7.60;65.10;;;;;;5055545;28;20459;-74
2021/12/04 16:14:28;;;;;;;;;;;7.50;64.30;;;;;;5040248;28;19972;-74
2021/12/04 16:16:53;;;;;;;;;;;7.50;63.80;;;;;;5043524;28;20398;-74
2021/12/04 16:19:19;;;;;;;;;;;7.50;63.30;;;;;;5059818;28;20227;-74
2021/12/04 16:21:44;;;;;;;;;;;7.40;62.90;;;;;;5060256;28;19942;-74
2021/12/04 16:24:11;;;;;;;;;;;7.40;63.00;;;;;;5059932;28;20359;-74
2021/12/04 16:26:38;;;;;;;;;;;7.40;63.40;;;;;;5038239;28;20361;-74
2021/12/04 16:29:12;;;;;;;;;;;7.40;63.60;;;;;;5040420;28;19949;-74
2021/12/04 16:37:34;;;;;;;;;;;7.30;63.50;;;;;;5040440;28;19950;-74
2021/12/04 16:39:41;;;;;;;;;;;7.20;64.00;;;;;;5037849;28;20521;-74
2021/12/04 16:42:09;;;;;;;;;;;7.20;64.50;;;;;;5041055;28;20036;-74
2021/12/04 16:44:34;;;;;;;;;;;7.10;65.00;;;;;;5059890;28;20087;-74
2021/12/04 16:47:04;;;;;;;;;;;7.00;65.40;;;;;;5059698;28;20013;-74
2021/12/04 16:49:30;;;;;;;;;;;6.90;66.10;;;;;;5041547;28;19977;-74
2021/12/04 16:59:49;;;;;;;;;;;6.90;66.00;;;;;;5039471;28;19948;-74
2021/12/04 17:02:16;;;;;;;;;;;6.90;65.80;;;;;;5051714;28;19942;-74
2021/12/04 17:04:42;;;;;;;;;;;6.90;65.50;;;;;;5042093;28;19959;-74
2021/12/04 17:07:07;;;;;;;;;;;6.90;65.30;;;;;;5038200;28;19948;-74
2021/12/04 17:09:33;;;;;;;;;;;6.80;65.70;;;;;;5057795;28;20042;-74
2021/12/04 17:11:59;;;;;;;;;;;6.70;66.80;;;;;;5059798;28;19982;-74
2021/12/04 17:14:26;;;;;;;;;;;6.60;67.50;;;;;;5060075;28;20028;-74
2021/12/04 17:16:53;;;;;;;;;;;6.50;67.90;;;;;;5053284;28;19961;-74
2021/12/04 17:19:20;;;;;;;;;;;6.50;68.20;;;;;;5040023;28;20071;-74
2021/12/04 17:21:47;;;;;;;;;;;6.50;68.50;;;;;;5040105;28;20039;-74
2021/12/04 17:24:14;;;;;;;;;;;6.50;68.30;;;;;;5039122;28;19991;-74
2021/12/04 17:26:40;;;;;;;;;;;6.60;67.80;;;;;;5039547;28;19968;-74
2021/12/04 17:29:08;;;;;;;;;;;6.60;67.60;;;;;;5039380;28;19986;-74
2021/12/04 17:31:34;;;;;;;;;;;6.70;67.00;;;;;;5024700;28;20386;-74
2021/12/04 17:34:00;;;;;;;;;;;6.60;66.90;;;;;;5047902;28;20346;-74
2021/12/04 17:36:27;;;;;;;;;;;6.50;67.20;;;;;;5040876;28;20034;-74
2021/12/04 17:38:53;;;;;;;;;;;6.50;67.20;;;;;;5066335;23;20021;-74
2021/12/04 17:41:23;;;;;;;;;;;6.50;66.80;;;;;;5041162;28;19949;-74
2021/12/04 17:43:49;;;;;;;;;;;6.50;66.30;;;;;;5059470;28;19957;-74
2021/12/04 17:46:17;;;;;;;;;;;6.50;66.20;;;;;;5059437;28;19943;-74
2021/12/04 17:48:44;;;;;;;;;;;6.40;66.00;;;;;;5054486;28;19954;-74
2021/12/04 17:51:10;;;;;;;;;;;6.40;66.30;;;;;;5039606;28;20441;-74
2021/12/04 17:53:39;;;;;;;;;;;6.40;66.40;;;;;;5038882;28;19973;-74
2021/12/04 17:56:05;;;;;;;;;;;6.40;65.90;;;;;;5043259;28;19949;-74
2021/12/04 17:58:31;;;;;;;;;;;6.30;65.80;;;;;;5059485;28;20458;-74
2021/12/04 18:00:58;;;;;;;;;;;6.30;66.20;;;;;;5043424;28;20504;-74
2021/12/04 18:03:25;;;;;;;;;;;6.30;65.80;;;;;;5038971;28;19962;-74
2021/12/04 18:05:51;;;;;;;;;;;6.30;65.40;;;;;;5044684;28;19950;-74
2021/12/04 18:08:17;;;;;;;;;;;6.30;65.10;;;;;;5035027;28;19976;-74
2021/12/04 18:10:44;;;;;;;;;;;6.20;64.60;;;;;;5059291;28;19942;-75
2021/12/04 18:13:11;;;;;;;;;;;6.20;64.30;;;;;;5059173;28;19970;-75
2021/12/04 18:15:42;;;;;;;;;;;6.20;64.40;;;;;;5059008;28;20337;-74
2021/12/04 18:18:08;;;;;;;;;;;6.30;64.20;;;;;;5041059;28;19961;-74